BSC4002 VMMC-VOHS
Flight info
| Callsign | BSC4002 |
|---|---|
| Flight time | N/A |
| Altitude | 36100 |
| Route | BIGRO R200 LH R339 BSE A599 LXI W148 XSJ W146 GULOT A599 LINSO/N0497F380 A599 CTG B465 CEA Q11 SURUP W41 ANBAS VITUR8 |
| Aircraft | B742/H-SDFHIRWXY/L |
Departure
| Time | N/A |
|---|---|
| Airport | Macau International Airport (VMMC) |
Arrival
| Time | 2026-05-04 13:45 |
|---|---|
| Airport | Rajiv Gandhi International Airport (VOHS) |
| Time | Latitude | Longitude | Altitude | Speed | Heading |
|---|---|---|---|---|---|
| 2026-05-04 13:19 | 17.73452 | 81.03548 | 37765 ft | 475 kts | 240° |
| 2026-05-04 13:20 | 17.70154 | 80.97501 | 37762 ft | 476 kts | 240° |
| 2026-05-04 13:20 | 17.66854 | 80.91455 | 37771 ft | 475 kts | 240° |
| 2026-05-04 13:21 | 17.63569 | 80.85442 | 37773 ft | 474 kts | 240° |
| 2026-05-04 13:21 | 17.60265 | 80.79401 | 37770 ft | 475 kts | 240° |
| 2026-05-04 13:21 | 17.58616 | 80.76386 | 37594 ft | 480 kts | 240° |
| 2026-05-04 13:22 | 17.56921 | 80.73292 | 36883 ft | 488 kts | 240° |
| 2026-05-04 13:22 | 17.55229 | 80.70206 | 36141 ft | 477 kts | 240° |
| 2026-05-04 13:22 | 17.53593 | 80.67210 | 35987 ft | 469 kts | 240° |
| 2026-05-04 13:22 | 17.51949 | 80.64209 | 35303 ft | 482 kts | 240° |
| 2026-05-04 13:23 | 17.50258 | 80.61130 | 34586 ft | 492 kts | 240° |
| 2026-05-04 13:23 | 17.48527 | 80.57979 | 33861 ft | 491 kts | 240° |
| 2026-05-04 13:23 | 17.46830 | 80.54893 | 33150 ft | 485 kts | 240° |
| 2026-05-04 13:23 | 17.45132 | 80.51807 | 32437 ft | 483 kts | 240° |
| 2026-05-04 13:24 | 17.43448 | 80.48745 | 31819 ft | 489 kts | 240° |
| 2026-05-04 13:24 | 17.41722 | 80.45610 | 31210 ft | 495 kts | 240° |
| 2026-05-04 13:24 | 17.40001 | 80.42481 | 30611 ft | 497 kts | 240° |
| 2026-05-04 13:25 | 17.36565 | 80.36238 | 29406 ft | 486 kts | 240° |
| 2026-05-04 13:25 | 17.34899 | 80.33219 | 28815 ft | 479 kts | 240° |
| 2026-05-04 13:25 | 17.33312 | 80.30360 | 28250 ft | 472 kts | 240° |
| 2026-05-04 13:25 | 17.31674 | 80.27411 | 27670 ft | 469 kts | 240° |
| 2026-05-04 13:26 | 17.30029 | 80.24445 | 27109 ft | 467 kts | 240° |
| 2026-05-04 13:26 | 17.28400 | 80.21500 | 26629 ft | 464 kts | 240° |
| 2026-05-04 13:26 | 17.26792 | 80.18593 | 26155 ft | 462 kts | 240° |
| 2026-05-04 13:26 | 17.25280 | 80.15597 | 25671 ft | 462 kts | 247° |
| 2026-05-04 13:27 | 17.24385 | 80.12373 | 25196 ft | 462 kts | 259° |
| 2026-05-04 13:27 | 17.24092 | 80.09047 | 24725 ft | 461 kts | 266° |
| 2026-05-04 13:27 | 17.24055 | 80.05740 | 24255 ft | 459 kts | 269° |
| 2026-05-04 13:27 | 17.24090 | 80.02413 | 23782 ft | 456 kts | 269° |
| 2026-05-04 13:28 | 17.24127 | 79.99095 | 23303 ft | 453 kts | 269° |
| 2026-05-04 13:28 | 17.24149 | 79.95806 | 22822 ft | 449 kts | 269° |
| 2026-05-04 13:28 | 17.24156 | 79.92550 | 22336 ft | 448 kts | 269° |
| 2026-05-04 13:28 | 17.24152 | 79.89340 | 21881 ft | 445 kts | 269° |
| 2026-05-04 13:29 | 17.24141 | 79.86106 | 21424 ft | 443 kts | 269° |
| 2026-05-04 13:29 | 17.24126 | 79.82893 | 20957 ft | 440 kts | 269° |
| 2026-05-04 13:29 | 17.24110 | 79.79716 | 20503 ft | 436 kts | 269° |
| 2026-05-04 13:29 | 17.24091 | 79.76551 | 20046 ft | 434 kts | 269° |
| 2026-05-04 13:30 | 17.24072 | 79.73441 | 19589 ft | 432 kts | 269° |
| 2026-05-04 13:30 | 17.24052 | 79.70304 | 19115 ft | 427 kts | 269° |
| 2026-05-04 13:30 | 17.24032 | 79.67211 | 18695 ft | 423 kts | 269° |
| 2026-05-04 13:30 | 17.24012 | 79.64146 | 18330 ft | 422 kts | 269° |
| 2026-05-04 13:31 | 17.23992 | 79.61104 | 17973 ft | 422 kts | 269° |
| 2026-05-04 13:31 | 17.23971 | 79.58030 | 17603 ft | 420 kts | 269° |
| 2026-05-04 13:31 | 17.23950 | 79.54976 | 17227 ft | 418 kts | 269° |
| 2026-05-04 13:31 | 17.23927 | 79.51936 | 16878 ft | 417 kts | 269° |
| 2026-05-04 13:32 | 17.23905 | 79.48954 | 16517 ft | 415 kts | 269° |
| 2026-05-04 13:32 | 17.23882 | 79.45951 | 16144 ft | 411 kts | 269° |
| 2026-05-04 13:32 | 17.23859 | 79.42942 | 15788 ft | 409 kts | 269° |
| 2026-05-04 13:32 | 17.23835 | 79.39973 | 15418 ft | 405 kts | 270° |
| 2026-05-04 13:33 | 17.23811 | 79.37035 | 15043 ft | 400 kts | 270° |
| 2026-05-04 13:33 | 17.23787 | 79.34150 | 14621 ft | 399 kts | 270° |
| 2026-05-04 13:33 | 17.23754 | 79.31258 | 14162 ft | 394 kts | 270° |
| 2026-05-04 13:33 | 17.23721 | 79.28483 | 13710 ft | 390 kts | 270° |
| 2026-05-04 13:34 | 17.23691 | 79.25680 | 13241 ft | 388 kts | 270° |
| 2026-05-04 13:34 | 17.23663 | 79.22855 | 12753 ft | 384 kts | 270° |
| 2026-05-04 13:34 | 17.23639 | 79.20082 | 12165 ft | 380 kts | 271° |
| 2026-05-04 13:34 | 17.23615 | 79.17348 | 11511 ft | 378 kts | 270° |
| 2026-05-04 13:35 | 17.23591 | 79.14615 | 10881 ft | 375 kts | 270° |
| 2026-05-04 13:35 | 17.23540 | 79.09345 | 10434 ft | 346 kts | 270° |
| 2026-05-04 13:35 | 17.23516 | 79.06883 | 10334 ft | 331 kts | 271° |
| 2026-05-04 13:36 | 17.23493 | 79.04509 | 10246 ft | 317 kts | 271° |
| 2026-05-04 13:36 | 17.23471 | 79.02277 | 10147 ft | 304 kts | 271° |
| 2026-05-04 13:36 | 17.23449 | 79.00095 | 10039 ft | 293 kts | 271° |
| 2026-05-04 13:36 | 17.23429 | 78.97961 | 9706 ft | 294 kts | 271° |
| 2026-05-04 13:37 | 17.23408 | 78.95848 | 9353 ft | 292 kts | 270° |
| 2026-05-04 13:37 | 17.23356 | 78.93716 | 8993 ft | 291 kts | 269° |
| 2026-05-04 13:37 | 17.23310 | 78.91608 | 8643 ft | 290 kts | 271° |
| 2026-05-04 13:37 | 17.23344 | 78.89535 | 8350 ft | 286 kts | 272° |
| 2026-05-04 13:38 | 17.23400 | 78.87464 | 8109 ft | 286 kts | 272° |
| 2026-05-04 13:38 | 17.23432 | 78.85378 | 7870 ft | 287 kts | 271° |
| 2026-05-04 13:38 | 17.23431 | 78.83301 | 7631 ft | 286 kts | 270° |
| 2026-05-04 13:38 | 17.23403 | 78.81239 | 7471 ft | 278 kts | 270° |
| 2026-05-04 13:39 | 17.23367 | 78.79243 | 7362 ft | 272 kts | 269° |
| 2026-05-04 13:39 | 17.23332 | 78.77278 | 7263 ft | 272 kts | 269° |
| 2026-05-04 13:39 | 17.23301 | 78.75300 | 7076 ft | 275 kts | 270° |
| 2026-05-04 13:39 | 17.23273 | 78.73295 | 6814 ft | 276 kts | 270° |
| 2026-05-04 13:40 | 17.23249 | 78.71287 | 6484 ft | 276 kts | 269° |
| 2026-05-04 13:40 | 17.23226 | 78.69266 | 6134 ft | 276 kts | 269° |
| 2026-05-04 13:40 | 17.23201 | 78.67282 | 5707 ft | 269 kts | 269° |
| 2026-05-04 13:40 | 17.23175 | 78.65367 | 5492 ft | 264 kts | 269° |
| 2026-05-04 13:41 | 17.23151 | 78.63457 | 5150 ft | 264 kts | 269° |
| 2026-05-04 13:41 | 17.23128 | 78.61559 | 4756 ft | 258 kts | 268° |
| 2026-05-04 13:41 | 17.23105 | 78.59722 | 4500 ft | 242 kts | 268° |
| 2026-05-04 13:42 | 17.23062 | 78.56360 | 3987 ft | 223 kts | 267° |
| 2026-05-04 13:42 | 17.23039 | 78.54748 | 3719 ft | 219 kts | 268° |
| 2026-05-04 13:42 | 17.23019 | 78.53211 | 3426 ft | 207 kts | 269° |
| 2026-05-04 13:42 | 17.22999 | 78.51765 | 3215 ft | 191 kts | 270° |
| 2026-05-04 13:43 | 17.22983 | 78.50417 | 2946 ft | 180 kts | 269° |
| 2026-05-04 13:43 | 17.22967 | 78.49181 | 2764 ft | 163 kts | 268° |
| 2026-05-04 13:43 | 17.22953 | 78.48037 | 2542 ft | 151 kts | 270° |
| 2026-05-04 13:43 | 17.22930 | 78.46958 | 2318 ft | 146 kts | 269° |
| 2026-05-04 13:44 | 17.22924 | 78.45911 | 2142 ft | 143 kts | 271° |
| 2026-05-04 13:44 | 17.22906 | 78.44900 | 2040 ft | 134 kts | 273° |
| 2026-05-04 13:44 | 17.22895 | 78.44151 | 2040 ft | 71 kts | 270° |
| 2026-05-04 13:44 | 17.22894 | 78.43631 | 2026 ft | 70 kts | 270° |
| 2026-05-04 13:45 | 17.22890 | 78.43189 | 2008 ft | 51 kts | 269° |
| 2026-05-04 13:45 | 17.22885 | 78.42907 | 1998 ft | 37 kts | 267° |
| 2026-05-04 13:45 | 17.22890 | 78.42689 | 1987 ft | 24 kts | 284° |
| 2026-05-04 13:45 | 17.22963 | 78.42519 | 1979 ft | 26 kts | 300° |
| 2026-05-04 13:46 | 17.23028 | 78.42399 | 1974 ft | 13 kts | 300° |
| 2026-05-04 13:46 | 17.23070 | 78.42324 | 1971 ft | 11 kts | 298° |
| 2026-05-04 13:46 | 17.23081 | 78.42252 | 1969 ft | 5 kts | 278° |
| 2026-05-04 13:46 | 17.23092 | 78.42233 | 1969 ft | 2 kts | 326° |
| 2026-05-04 13:47 | 17.23119 | 78.42231 | 1970 ft | 5 kts | 3° |
| 2026-05-04 13:47 | 17.23165 | 78.42233 | 1972 ft | 7 kts | 2° |
| 2026-05-04 13:47 | 17.23212 | 78.42229 | 1976 ft | 6 kts | 337° |
| 2026-05-04 13:47 | 17.23243 | 78.42180 | 1975 ft | 9 kts | 277° |
| 2026-05-04 13:48 | 17.23240 | 78.42142 | 1972 ft | 0 kts | 258° |
| 2026-05-04 13:49 | 17.23240 | 78.42140 | 1972 ft | 1 kts | 258° |
| 2026-05-04 13:49 | 17.23230 | 78.42088 | 1968 ft | 12 kts | 264° |
| 2026-05-04 13:50 | 17.23257 | 78.42031 | 1965 ft | 8 kts | 340° |
| 2026-05-04 13:50 | 17.23312 | 78.42025 | 1965 ft | 7 kts | 358° |
| 2026-05-04 13:50 | 17.23352 | 78.42025 | 1966 ft | 4 kts | 1° |
| 2026-05-04 13:50 | 17.23372 | 78.42025 | 1966 ft | 1 kts | 2° |
| 2026-05-04 13:51 | 17.23383 | 78.42025 | 1966 ft | 2 kts | 360° |
| 2026-05-04 13:51 | 17.23398 | 78.42025 | 1967 ft | 0 kts | 360° |